sensor_id;sensor_type;location;lat;lon;timestamp;temperature;humidity
41904;DHT22;27586;51.124;4.182;2024-03-22T00:00:38;12.80;99.90
41904;DHT22;27586;51.124;4.182;2024-03-22T00:03:05;12.80;99.90
41904;DHT22;27586;51.124;4.182;2024-03-22T00:05:30;12.80;99.90
41904;DHT22;27586;51.124;4.182;2024-03-22T00:07:56;12.80;99.90
41904;DHT22;27586;51.124;4.182;2024-03-22T00:10:22;12.80;99.90
41904;DHT22;27586;51.124;4.182;2024-03-22T00:12:49;12.80;99.90
41904;DHT22;27586;51.124;4.182;2024-03-22T00:15:15;12.70;99.90
41904;DHT22;27586;51.124;4.182;2024-03-22T00:17:42;12.70;99.90
41904;DHT22;27586;51.124;4.182;2024-03-22T00:20:08;12.70;99.90
41904;DHT22;27586;51.124;4.182;2024-03-22T00:22:34;12.70;99.90
41904;DHT22;27586;51.124;4.182;2024-03-22T00:24:59;12.60;99.90
41904;DHT22;27586;51.124;4.182;2024-03-22T00:27:25;12.60;99.90
41904;DHT22;27586;51.124;4.182;2024-03-22T00:29:50;12.60;99.90
41904;DHT22;27586;51.124;4.182;2024-03-22T00:32:16;12.60;99.90
41904;DHT22;27586;51.124;4.182;2024-03-22T00:34:42;12.60;99.90
41904;DHT22;27586;51.124;4.182;2024-03-22T00:37:08;12.60;99.90
41904;DHT22;27586;51.124;4.182;2024-03-22T00:39:34;12.50;99.90
41904;DHT22;27586;51.124;4.182;2024-03-22T00:41:59;12.50;99.90
41904;DHT22;27586;51.124;4.182;2024-03-22T00:44:25;12.50;99.90
41904;DHT22;27586;51.124;4.182;2024-03-22T00:46:51;12.40;99.90
41904;DHT22;27586;51.124;4.182;2024-03-22T00:49:16;12.40;99.90
41904;DHT22;27586;51.124;4.182;2024-03-22T00:51:42;12.30;99.90
41904;DHT22;27586;51.124;4.182;2024-03-22T00:54:09;12.30;99.90
41904;DHT22;27586;51.124;4.182;2024-03-22T00:56:35;12.30;99.90
41904;DHT22;27586;51.124;4.182;2024-03-22T00:59:00;12.20;99.90
41904;DHT22;27586;51.124;4.182;2024-03-22T01:01:26;12.20;99.90
41904;DHT22;27586;51.124;4.182;2024-03-22T01:03:52;12.10;99.90
41904;DHT22;27586;51.124;4.182;2024-03-22T01:06:18;12.10;99.90
41904;DHT22;27586;51.124;4.182;2024-03-22T01:08:49;12.10;99.90
41904;DHT22;27586;51.124;4.182;2024-03-22T01:11:15;12.10;99.90
41904;DHT22;27586;51.124;4.182;2024-03-22T01:13:40;12.10;99.90
41904;DHT22;27586;51.124;4.182;2024-03-22T01:16:06;12.00;99.90
41904;DHT22;27586;51.124;4.182;2024-03-22T01:18:38;12.00;99.90
41904;DHT22;27586;51.124;4.182;2024-03-22T01:21:04;12.00;99.90
41904;DHT22;27586;51.124;4.182;2024-03-22T01:23:31;12.00;99.90
41904;DHT22;27586;51.124;4.182;2024-03-22T01:25:56;11.90;99.90
41904;DHT22;27586;51.124;4.182;2024-03-22T01:28:22;11.90;99.90
41904;DHT22;27586;51.124;4.182;2024-03-22T01:30:48;11.90;99.90
41904;DHT22;27586;51.124;4.182;2024-03-22T01:33:13;11.80;99.90
41904;DHT22;27586;51.124;4.182;2024-03-22T01:35:39;11.80;99.90
41904;DHT22;27586;51.124;4.182;2024-03-22T01:38:05;11.70;99.90
41904;DHT22;27586;51.124;4.182;2024-03-22T01:40:30;11.70;99.90
41904;DHT22;27586;51.124;4.182;2024-03-22T01:42:57;11.70;99.90
41904;DHT22;27586;51.124;4.182;2024-03-22T01:45:23;11.70;99.90
41904;DHT22;27586;51.124;4.182;2024-03-22T01:47:51;11.70;99.90
41904;DHT22;27586;51.124;4.182;2024-03-22T01:50:17;11.70;99.90
41904;DHT22;27586;51.124;4.182;2024-03-22T01:52:43;11.70;99.90
41904;DHT22;27586;51.124;4.182;2024-03-22T01:55:08;11.80;99.90
41904;DHT22;27586;51.124;4.182;2024-03-22T01:57:34;11.80;99.90
41904;DHT22;27586;51.124;4.182;2024-03-22T02:00:01;11.80;99.90
41904;DHT22;27586;51.124;4.182;2024-03-22T02:02:27;11.80;99.90
41904;DHT22;27586;51.124;4.182;2024-03-22T02:04:52;11.80;99.90
41904;DHT22;27586;51.124;4.182;2024-03-22T02:07:18;11.90;99.90
41904;DHT22;27586;51.124;4.182;2024-03-22T02:09:44;11.80;99.90
41904;DHT22;27586;51.124;4.182;2024-03-22T02:12:10;11.80;99.90
41904;DHT22;27586;51.124;4.182;2024-03-22T02:14:36;11.80;99.90
41904;DHT22;27586;51.124;4.182;2024-03-22T02:17:02;11.80;99.90
41904;DHT22;27586;51.124;4.182;2024-03-22T02:19:27;11.80;99.90
41904;DHT22;27586;51.124;4.182;2024-03-22T02:21:53;11.80;99.90
41904;DHT22;27586;51.124;4.182;2024-03-22T02:24:18;11.70;99.90
41904;DHT22;27586;51.124;4.182;2024-03-22T02:26:44;11.70;99.90
41904;DHT22;27586;51.124;4.182;2024-03-22T02:29:10;11.70;99.90
41904;DHT22;27586;51.124;4.182;2024-03-22T02:31:35;11.70;99.90
41904;DHT22;27586;51.124;4.182;2024-03-22T02:34:01;11.70;99.90
41904;DHT22;27586;51.124;4.182;2024-03-22T02:36:26;11.60;99.90
41904;DHT22;27586;51.124;4.182;2024-03-22T02:38:52;11.60;99.90
41904;DHT22;27586;51.124;4.182;2024-03-22T02:41:18;11.60;99.90
41904;DHT22;27586;51.124;4.182;2024-03-22T02:43:43;11.70;99.90
41904;DHT22;27586;51.124;4.182;2024-03-22T02:46:09;11.60;99.90
41904;DHT22;27586;51.124;4.182;2024-03-22T02:48:35;11.60;99.90
41904;DHT22;27586;51.124;4.182;2024-03-22T02:51:00;11.60;99.90
41904;DHT22;27586;51.124;4.182;2024-03-22T02:53:26;11.60;99.90
41904;DHT22;27586;51.124;4.182;2024-03-22T02:55:52;11.60;99.90
41904;DHT22;27586;51.124;4.182;2024-03-22T02:58:20;11.50;99.90
41904;DHT22;27586;51.124;4.182;2024-03-22T03:00:45;11.50;99.90
41904;DHT22;27586;51.124;4.182;2024-03-22T03:03:11;11.50;99.90
41904;DHT22;27586;51.124;4.182;2024-03-22T03:05:36;11.40;99.90
41904;DHT22;27586;51.124;4.182;2024-03-22T03:08:02;11.40;99.90
41904;DHT22;27586;51.124;4.182;2024-03-22T03:10:29;11.40;99.90
41904;DHT22;27586;51.124;4.182;2024-03-22T03:12:55;11.30;99.90
41904;DHT22;27586;51.124;4.182;2024-03-22T03:15:21;11.40;99.90
41904;DHT22;27586;51.124;4.182;2024-03-22T03:17:47;11.30;99.90
41904;DHT22;27586;51.124;4.182;2024-03-22T03:20:12;11.30;99.90
41904;DHT22;27586;51.124;4.182;2024-03-22T03:22:41;11.30;99.90
41904;DHT22;27586;51.124;4.182;2024-03-22T03:25:07;11.30;99.90
41904;DHT22;27586;51.124;4.182;2024-03-22T03:27:33;11.30;99.90
41904;DHT22;27586;51.124;4.182;2024-03-22T03:29:59;11.30;99.90
41904;DHT22;27586;51.124;4.182;2024-03-22T03:32:26;11.30;99.90
41904;DHT22;27586;51.124;4.182;2024-03-22T03:34:51;11.30;99.90
41904;DHT22;27586;51.124;4.182;2024-03-22T03:37:17;11.30;99.90
41904;DHT22;27586;51.124;4.182;2024-03-22T03:39:43;11.30;99.90
41904;DHT22;27586;51.124;4.182;2024-03-22T03:42:10;11.20;99.90
41904;DHT22;27586;51.124;4.182;2024-03-22T03:44:35;11.20;99.90
41904;DHT22;27586;51.124;4.182;2024-03-22T03:47:02;11.20;99.90
41904;DHT22;27586;51.124;4.182;2024-03-22T03:49:28;11.20;99.90
41904;DHT22;27586;51.124;4.182;2024-03-22T03:51:53;11.20;99.90
41904;DHT22;27586;51.124;4.182;2024-03-22T03:54:19;11.30;99.90
41904;DHT22;27586;51.124;4.182;2024-03-22T03:56:44;11.20;99.90
41904;DHT22;27586;51.124;4.182;2024-03-22T03:59:10;11.20;99.90
41904;DHT22;27586;51.124;4.182;2024-03-22T04:01:36;11.20;99.90
41904;DHT22;27586;51.124;4.182;2024-03-22T04:04:03;11.20;99.90
41904;DHT22;27586;51.124;4.182;2024-03-22T04:06:29;11.20;99.90
41904;DHT22;27586;51.124;4.182;2024-03-22T04:08:54;11.20;99.90
41904;DHT22;27586;51.124;4.182;2024-03-22T04:11:20;11.10;99.90
41904;DHT22;27586;51.124;4.182;2024-03-22T04:13:45;11.20;99.90
41904;DHT22;27586;51.124;4.182;2024-03-22T04:16:12;11.20;99.90
41904;DHT22;27586;51.124;4.182;2024-03-22T04:18:38;11.20;99.90
41904;DHT22;27586;51.124;4.182;2024-03-22T04:21:04;11.20;99.90
41904;DHT22;27586;51.124;4.182;2024-03-22T04:23:30;11.10;99.90
41904;DHT22;27586;51.124;4.182;2024-03-22T04:26:00;11.10;99.90
41904;DHT22;27586;51.124;4.182;2024-03-22T04:28:26;11.20;99.90
41904;DHT22;27586;51.124;4.182;2024-03-22T04:31:00;11.20;99.90
41904;DHT22;27586;51.124;4.182;2024-03-22T04:33:26;11.20;99.90
41904;DHT22;27586;51.124;4.182;2024-03-22T04:35:53;11.20;99.90
41904;DHT22;27586;51.124;4.182;2024-03-22T04:38:18;11.20;99.90
41904;DHT22;27586;51.124;4.182;2024-03-22T04:40:44;11.20;99.90
41904;DHT22;27586;51.124;4.182;2024-03-22T04:43:10;11.20;99.90
41904;DHT22;27586;51.124;4.182;2024-03-22T04:45:35;11.10;99.90
41904;DHT22;27586;51.124;4.182;2024-03-22T04:48:04;11.10;99.90
41904;DHT22;27586;51.124;4.182;2024-03-22T04:50:30;11.10;99.90
41904;DHT22;27586;51.124;4.182;2024-03-22T04:52:56;11.10;99.90
41904;DHT22;27586;51.124;4.182;2024-03-22T04:55:22;11.10;99.90
41904;DHT22;27586;51.124;4.182;2024-03-22T04:57:48;11.10;99.90
41904;DHT22;27586;51.124;4.182;2024-03-22T05:00:14;11.10;99.90
41904;DHT22;27586;51.124;4.182;2024-03-22T05:02:40;11.10;99.90
41904;DHT22;27586;51.124;4.182;2024-03-22T05:05:06;11.10;99.90
41904;DHT22;27586;51.124;4.182;2024-03-22T05:07:33;11.10;99.90
41904;DHT22;27586;51.124;4.182;2024-03-22T05:09:58;11.10;99.90
41904;DHT22;27586;51.124;4.182;2024-03-22T05:12:24;11.20;99.90
41904;DHT22;27586;51.124;4.182;2024-03-22T05:14:50;11.10;99.90
41904;DHT22;27586;51.124;4.182;2024-03-22T05:17:15;11.10;99.90
41904;DHT22;27586;51.124;4.182;2024-03-22T05:19:41;11.10;99.90
41904;DHT22;27586;51.124;4.182;2024-03-22T05:22:06;11.10;99.90
41904;DHT22;27586;51.124;4.182;2024-03-22T05:24:32;11.20;99.90
41904;DHT22;27586;51.124;4.182;2024-03-22T05:26:58;11.20;99.90
41904;DHT22;27586;51.124;4.182;2024-03-22T05:29:24;11.10;99.90
41904;DHT22;27586;51.124;4.182;2024-03-22T05:31:50;11.20;99.90
41904;DHT22;27586;51.124;4.182;2024-03-22T05:34:17;11.10;99.90
41904;DHT22;27586;51.124;4.182;2024-03-22T05:36:44;11.10;99.90
41904;DHT22;27586;51.124;4.182;2024-03-22T05:39:09;11.10;99.90
41904;DHT22;27586;51.124;4.182;2024-03-22T05:41:38;11.10;99.90
41904;DHT22;27586;51.124;4.182;2024-03-22T05:44:05;11.10;99.90
41904;DHT22;27586;51.124;4.182;2024-03-22T05:46:31;11.20;99.90
41904;DHT22;27586;51.124;4.182;2024-03-22T05:49:00;11.20;99.90
41904;DHT22;27586;51.124;4.182;2024-03-22T05:51:26;11.20;99.90
41904;DHT22;27586;51.124;4.182;2024-03-22T05:53:51;11.10;99.90
41904;DHT22;27586;51.124;4.182;2024-03-22T05:56:17;11.20;99.90
41904;DHT22;27586;51.124;4.182;2024-03-22T05:58:43;11.10;99.90
41904;DHT22;27586;51.124;4.182;2024-03-22T06:01:08;11.10;99.90
41904;DHT22;27586;51.124;4.182;2024-03-22T06:03:34;11.20;99.90
41904;DHT22;27586;51.124;4.182;2024-03-22T06:06:00;11.10;99.90
41904;DHT22;27586;51.124;4.182;2024-03-22T06:08:26;11.10;99.90
41904;DHT22;27586;51.124;4.182;2024-03-22T06:10:55;11.20;99.90
41904;DHT22;27586;51.124;4.182;2024-03-22T06:13:24;11.20;99.90
41904;DHT22;27586;51.124;4.182;2024-03-22T06:15:49;11.20;99.90
41904;DHT22;27586;51.124;4.182;2024-03-22T06:18:15;11.20;99.90
41904;DHT22;27586;51.124;4.182;2024-03-22T06:20:41;11.30;99.90
41904;DHT22;27586;51.124;4.182;2024-03-22T06:23:10;11.20;99.90
41904;DHT22;27586;51.124;4.182;2024-03-22T06:25:36;11.20;99.90
41904;DHT22;27586;51.124;4.182;2024-03-22T06:28:02;11.20;99.90
41904;DHT22;27586;51.124;4.182;2024-03-22T06:30:27;11.10;99.90
41904;DHT22;27586;51.124;4.182;2024-03-22T06:32:53;11.10;99.90
41904;DHT22;27586;51.124;4.182;2024-03-22T06:35:20;11.20;99.90
41904;DHT22;27586;51.124;4.182;2024-03-22T06:37:46;11.30;99.90
41904;DHT22;27586;51.124;4.182;2024-03-22T06:40:12;11.30;99.90
41904;DHT22;27586;51.124;4.182;2024-03-22T06:42:37;11.30;99.90
41904;DHT22;27586;51.124;4.182;2024-03-22T06:45:03;11.30;99.90
41904;DHT22;27586;51.124;4.182;2024-03-22T06:47:29;11.30;99.90
41904;DHT22;27586;51.124;4.182;2024-03-22T06:49:55;11.40;99.90
41904;DHT22;27586;51.124;4.182;2024-03-22T06:52:20;11.30;99.90
41904;DHT22;27586;51.124;4.182;2024-03-22T06:54:46;11.30;99.90
41904;DHT22;27586;51.124;4.182;2024-03-22T06:57:12;11.30;99.90
41904;DHT22;27586;51.124;4.182;2024-03-22T06:59:38;11.30;99.90
41904;DHT22;27586;51.124;4.182;2024-03-22T07:02:04;11.30;99.90
41904;DHT22;27586;51.124;4.182;2024-03-22T07:04:29;11.40;99.90
41904;DHT22;27586;51.124;4.182;2024-03-22T07:06:55;11.50;99.90
41904;DHT22;27586;51.124;4.182;2024-03-22T07:09:21;11.40;99.90
41904;DHT22;27586;51.124;4.182;2024-03-22T07:11:46;11.50;99.90
41904;DHT22;27586;51.124;4.182;2024-03-22T07:14:12;11.50;99.90
41904;DHT22;27586;51.124;4.182;2024-03-22T07:16:38;11.50;99.90
41904;DHT22;27586;51.124;4.182;2024-03-22T07:19:04;11.60;99.90
41904;DHT22;27586;51.124;4.182;2024-03-22T07:21:30;11.60;99.90
41904;DHT22;27586;51.124;4.182;2024-03-22T07:23:56;11.70;99.90
41904;DHT22;27586;51.124;4.182;2024-03-22T07:26:22;11.70;99.90
41904;DHT22;27586;51.124;4.182;2024-03-22T07:28:47;11.70;99.90
41904;DHT22;27586;51.124;4.182;2024-03-22T07:31:13;11.70;99.90
41904;DHT22;27586;51.124;4.182;2024-03-22T07:33:39;11.80;99.90
41904;DHT22;27586;51.124;4.182;2024-03-22T07:36:05;11.80;99.90
41904;DHT22;27586;51.124;4.182;2024-03-22T07:38:31;11.80;99.90
41904;DHT22;27586;51.124;4.182;2024-03-22T07:40:57;11.90;99.90
41904;DHT22;27586;51.124;4.182;2024-03-22T07:43:23;11.90;99.90
41904;DHT22;27586;51.124;4.182;2024-03-22T07:45:48;11.80;99.90
41904;DHT22;27586;51.124;4.182;2024-03-22T07:48:14;11.90;99.90
41904;DHT22;27586;51.124;4.182;2024-03-22T07:50:40;12.00;99.90
41904;DHT22;27586;51.124;4.182;2024-03-22T07:53:06;12.10;99.90
41904;DHT22;27586;51.124;4.182;2024-03-22T07:55:31;12.10;99.90
41904;DHT22;27586;51.124;4.182;2024-03-22T07:57:57;12.20;99.90
41904;DHT22;27586;51.124;4.182;2024-03-22T08:00:23;12.20;99.90
41904;DHT22;27586;51.124;4.182;2024-03-22T08:02:51;12.20;99.90
41904;DHT22;27586;51.124;4.182;2024-03-22T08:05:17;12.20;99.90
41904;DHT22;27586;51.124;4.182;2024-03-22T08:07:42;12.20;99.90
41904;DHT22;27586;51.124;4.182;2024-03-22T08:10:09;12.30;99.90
41904;DHT22;27586;51.124;4.182;2024-03-22T08:12:35;12.40;99.90
41904;DHT22;27586;51.124;4.182;2024-03-22T08:15:01;12.50;99.90
41904;DHT22;27586;51.124;4.182;2024-03-22T08:17:26;12.50;99.90
41904;DHT22;27586;51.124;4.182;2024-03-22T08:19:52;12.50;99.90
41904;DHT22;27586;51.124;4.182;2024-03-22T08:22:18;12.70;99.90
41904;DHT22;27586;51.124;4.182;2024-03-22T08:24:44;12.70;99.90
41904;DHT22;27586;51.124;4.182;2024-03-22T08:27:09;12.70;99.90
41904;DHT22;27586;51.124;4.182;2024-03-22T08:29:35;12.80;99.90
41904;DHT22;27586;51.124;4.182;2024-03-22T08:32:01;12.90;99.90
41904;DHT22;27586;51.124;4.182;2024-03-22T08:34:32;13.00;99.90
41904;DHT22;27586;51.124;4.182;2024-03-22T08:36:58;12.90;99.90
41904;DHT22;27586;51.124;4.182;2024-03-22T08:39:24;13.00;99.90
41904;DHT22;27586;51.124;4.182;2024-03-22T08:41:51;12.90;99.90
41904;DHT22;27586;51.124;4.182;2024-03-22T08:44:16;13.00;99.90
41904;DHT22;27586;51.124;4.182;2024-03-22T08:46:42;13.00;99.90
41904;DHT22;27586;51.124;4.182;2024-03-22T08:49:08;12.90;99.90
41904;DHT22;27586;51.124;4.182;2024-03-22T08:51:33;12.80;99.90
41904;DHT22;27586;51.124;4.182;2024-03-22T08:53:59;12.90;99.90
41904;DHT22;27586;51.124;4.182;2024-03-22T08:56:26;12.90;99.90
41904;DHT22;27586;51.124;4.182;2024-03-22T08:58:52;12.80;99.90
41904;DHT22;27586;51.124;4.182;2024-03-22T09:01:17;12.80;99.90
41904;DHT22;27586;51.124;4.182;2024-03-22T09:03:43;12.80;99.90
41904;DHT22;27586;51.124;4.182;2024-03-22T09:06:12;12.80;99.90
41904;DHT22;27586;51.124;4.182;2024-03-22T09:08:37;12.80;99.90
41904;DHT22;27586;51.124;4.182;2024-03-22T09:11:03;12.80;99.90
41904;DHT22;27586;51.124;4.182;2024-03-22T09:13:29;12.80;99.90
41904;DHT22;27586;51.124;4.182;2024-03-22T09:15:58;12.70;99.90
41904;DHT22;27586;51.124;4.182;2024-03-22T09:18:25;12.80;99.90
41904;DHT22;27586;51.124;4.182;2024-03-22T09:20:51;12.90;99.90
41904;DHT22;27586;51.124;4.182;2024-03-22T09:23:17;12.80;99.90
41904;DHT22;27586;51.124;4.182;2024-03-22T09:25:42;12.80;99.90
41904;DHT22;27586;51.124;4.182;2024-03-22T09:28:08;12.90;99.90
41904;DHT22;27586;51.124;4.182;2024-03-22T09:30:38;12.80;99.90
41904;DHT22;27586;51.124;4.182;2024-03-22T09:33:04;12.80;99.90
41904;DHT22;27586;51.124;4.182;2024-03-22T09:35:30;12.80;99.90
41904;DHT22;27586;51.124;4.182;2024-03-22T09:37:56;12.80;99.90
41904;DHT22;27586;51.124;4.182;2024-03-22T09:40:22;12.70;99.90
41904;DHT22;27586;51.124;4.182;2024-03-22T09:42:49;12.80;99.90
41904;DHT22;27586;51.124;4.182;2024-03-22T09:45:15;12.80;99.90
41904;DHT22;27586;51.124;4.182;2024-03-22T09:47:44;12.70;99.90
41904;DHT22;27586;51.124;4.182;2024-03-22T09:50:12;12.70;99.90
41904;DHT22;27586;51.124;4.182;2024-03-22T09:52:38;12.70;99.90
41904;DHT22;27586;51.124;4.182;2024-03-22T09:55:06;12.60;99.90
41904;DHT22;27586;51.124;4.182;2024-03-22T09:57:32;12.70;99.90
41904;DHT22;27586;51.124;4.182;2024-03-22T09:59:59;12.70;99.90
41904;DHT22;27586;51.124;4.182;2024-03-22T10:02:25;12.80;99.90
41904;DHT22;27586;51.124;4.182;2024-03-22T10:04:52;12.90;99.90
41904;DHT22;27586;51.124;4.182;2024-03-22T10:07:18;12.80;99.90
41904;DHT22;27586;51.124;4.182;2024-03-22T10:09:44;12.80;99.90
41904;DHT22;27586;51.124;4.182;2024-03-22T10:12:09;12.90;99.90
41904;DHT22;27586;51.124;4.182;2024-03-22T10:14:35;12.90;99.90
41904;DHT22;27586;51.124;4.182;2024-03-22T10:17:02;12.80;99.90
41904;DHT22;27586;51.124;4.182;2024-03-22T10:19:28;12.80;99.90
41904;DHT22;27586;51.124;4.182;2024-03-22T10:22:00;12.70;99.90
41904;DHT22;27586;51.124;4.182;2024-03-22T10:24:27;12.70;99.90
41904;DHT22;27586;51.124;4.182;2024-03-22T10:26:54;12.80;99.90
41904;DHT22;27586;51.124;4.182;2024-03-22T10:29:20;12.80;99.90
41904;DHT22;27586;51.124;4.182;2024-03-22T10:31:48;12.80;99.90
41904;DHT22;27586;51.124;4.182;2024-03-22T10:34:14;12.60;99.90
41904;DHT22;27586;51.124;4.182;2024-03-22T10:36:41;12.70;99.90
41904;DHT22;27586;51.124;4.182;2024-03-22T10:39:09;12.70;99.90
41904;DHT22;27586;51.124;4.182;2024-03-22T10:41:36;12.70;99.90
41904;DHT22;27586;51.124;4.182;2024-03-22T10:44:02;12.80;99.90
41904;DHT22;27586;51.124;4.182;2024-03-22T10:46:30;12.80;99.90
41904;DHT22;27586;51.124;4.182;2024-03-22T10:48:56;12.80;99.90
41904;DHT22;27586;51.124;4.182;2024-03-22T10:51:24;12.80;99.90
41904;DHT22;27586;51.124;4.182;2024-03-22T10:53:52;12.80;99.90
41904;DHT22;27586;51.124;4.182;2024-03-22T10:56:22;12.80;99.90
41904;DHT22;27586;51.124;4.182;2024-03-22T10:58:48;12.80;99.90
41904;DHT22;27586;51.124;4.182;2024-03-22T11:01:24;12.80;99.90
41904;DHT22;27586;51.124;4.182;2024-03-22T11:03:50;12.90;99.90
41904;DHT22;27586;51.124;4.182;2024-03-22T11:06:19;12.80;99.90
41904;DHT22;27586;51.124;4.182;2024-03-22T11:08:50;12.80;99.90
41904;DHT22;27586;51.124;4.182;2024-03-22T11:11:17;12.80;99.90
41904;DHT22;27586;51.124;4.182;2024-03-22T11:13:47;12.80;99.90
41904;DHT22;27586;51.124;4.182;2024-03-22T11:16:16;12.80;99.90
41904;DHT22;27586;51.124;4.182;2024-03-22T11:18:42;12.80;99.90
41904;DHT22;27586;51.124;4.182;2024-03-22T11:21:08;12.70;99.90
41904;DHT22;27586;51.124;4.182;2024-03-22T11:23:35;12.70;99.90
41904;DHT22;27586;51.124;4.182;2024-03-22T11:26:02;12.80;99.90
41904;DHT22;27586;51.124;4.182;2024-03-22T11:28:29;12.80;99.90
41904;DHT22;27586;51.124;4.182;2024-03-22T11:30:54;12.80;99.90
41904;DHT22;27586;51.124;4.182;2024-03-22T11:33:20;12.80;99.90
41904;DHT22;27586;51.124;4.182;2024-03-22T11:35:46;12.80;99.90
41904;DHT22;27586;51.124;4.182;2024-03-22T11:38:12;12.90;99.90
41904;DHT22;27586;51.124;4.182;2024-03-22T11:40:37;12.90;99.90
41904;DHT22;27586;51.124;4.182;2024-03-22T11:43:03;12.80;99.90
41904;DHT22;27586;51.124;4.182;2024-03-22T11:45:30;12.90;99.90
41904;DHT22;27586;51.124;4.182;2024-03-22T11:48:02;12.80;99.90
41904;DHT22;27586;51.124;4.182;2024-03-22T11:50:28;12.90;99.90
41904;DHT22;27586;51.124;4.182;2024-03-22T11:52:53;12.80;99.90
41904;DHT22;27586;51.124;4.182;2024-03-22T11:55:19;12.80;99.90
41904;DHT22;27586;51.124;4.182;2024-03-22T11:57:48;12.90;99.90
41904;DHT22;27586;51.124;4.182;2024-03-22T12:00:15;12.80;99.90
41904;DHT22;27586;51.124;4.182;2024-03-22T12:02:42;12.80;99.90
41904;DHT22;27586;51.124;4.182;2024-03-22T12:05:09;12.80;99.90
41904;DHT22;27586;51.124;4.182;2024-03-22T12:07:36;12.90;99.90
41904;DHT22;27586;51.124;4.182;2024-03-22T12:10:02;12.70;99.90
41904;DHT22;27586;51.124;4.182;2024-03-22T12:12:29;12.80;99.90
41904;DHT22;27586;51.124;4.182;2024-03-22T12:14:55;12.90;99.90
41904;DHT22;27586;51.124;4.182;2024-03-22T12:17:21;12.90;99.90
41904;DHT22;27586;51.124;4.182;2024-03-22T12:19:47;12.80;99.90
41904;DHT22;27586;51.124;4.182;2024-03-22T12:22:13;12.80;99.90
41904;DHT22;27586;51.124;4.182;2024-03-22T12:24:38;12.80;99.90
41904;DHT22;27586;51.124;4.182;2024-03-22T12:27:04;12.80;99.90
41904;DHT22;27586;51.124;4.182;2024-03-22T12:29:33;12.70;99.90
41904;DHT22;27586;51.124;4.182;2024-03-22T12:31:59;12.80;99.90
41904;DHT22;27586;51.124;4.182;2024-03-22T12:34:29;12.80;99.90
41904;DHT22;27586;51.124;4.182;2024-03-22T12:36:55;12.70;99.90
41904;DHT22;27586;51.124;4.182;2024-03-22T12:39:21;12.80;99.90
41904;DHT22;27586;51.124;4.182;2024-03-22T12:41:47;12.70;99.90
41904;DHT22;27586;51.124;4.182;2024-03-22T12:44:13;12.50;99.90
41904;DHT22;27586;51.124;4.182;2024-03-22T12:46:38;12.50;99.90
41904;DHT22;27586;51.124;4.182;2024-03-22T12:49:04;12.40;99.90
41904;DHT22;27586;51.124;4.182;2024-03-22T12:51:30;12.40;99.90
41904;DHT22;27586;51.124;4.182;2024-03-22T12:53:55;12.50;99.90
41904;DHT22;27586;51.124;4.182;2024-03-22T12:56:21;12.50;99.90
41904;DHT22;27586;51.124;4.182;2024-03-22T12:58:47;12.50;99.90
41904;DHT22;27586;51.124;4.182;2024-03-22T13:01:13;12.50;99.90
41904;DHT22;27586;51.124;4.182;2024-03-22T13:03:39;12.60;99.90
41904;DHT22;27586;51.124;4.182;2024-03-22T13:06:05;12.60;99.90
41904;DHT22;27586;51.124;4.182;2024-03-22T13:08:34;12.50;99.90
41904;DHT22;27586;51.124;4.182;2024-03-22T13:10:59;12.50;99.90
41904;DHT22;27586;51.124;4.182;2024-03-22T13:13:25;12.60;99.90
41904;DHT22;27586;51.124;4.182;2024-03-22T13:15:50;12.50;99.90
41904;DHT22;27586;51.124;4.182;2024-03-22T13:18:16;12.40;99.90
41904;DHT22;27586;51.124;4.182;2024-03-22T13:20:42;12.40;99.90
41904;DHT22;27586;51.124;4.182;2024-03-22T13:23:08;12.50;99.90
41904;DHT22;27586;51.124;4.182;2024-03-22T13:25:35;12.40;99.90
41904;DHT22;27586;51.124;4.182;2024-03-22T13:28:03;12.40;99.90
41904;DHT22;27586;51.124;4.182;2024-03-22T13:30:30;12.40;99.90
41904;DHT22;27586;51.124;4.182;2024-03-22T13:32:56;12.30;99.90
41904;DHT22;27586;51.124;4.182;2024-03-22T13:35:22;12.40;99.90
41904;DHT22;27586;51.124;4.182;2024-03-22T13:37:47;12.40;99.90
41904;DHT22;27586;51.124;4.182;2024-03-22T13:40:13;12.40;99.90
41904;DHT22;27586;51.124;4.182;2024-03-22T13:42:40;12.30;99.90
41904;DHT22;27586;51.124;4.182;2024-03-22T13:45:06;12.30;99.90
41904;DHT22;27586;51.124;4.182;2024-03-22T13:47:32;12.40;99.90
41904;DHT22;27586;51.124;4.182;2024-03-22T13:49:58;12.30;99.90
41904;DHT22;27586;51.124;4.182;2024-03-22T13:52:23;12.40;99.90
41904;DHT22;27586;51.124;4.182;2024-03-22T13:54:49;12.40;99.90
41904;DHT22;27586;51.124;4.182;2024-03-22T13:57:18;12.40;99.90
41904;DHT22;27586;51.124;4.182;2024-03-22T13:59:44;12.40;99.90
41904;DHT22;27586;51.124;4.182;2024-03-22T14:02:09;12.30;99.90
41904;DHT22;27586;51.124;4.182;2024-03-22T14:04:35;12.20;99.90
41904;DHT22;27586;51.124;4.182;2024-03-22T14:07:01;12.20;99.90
41904;DHT22;27586;51.124;4.182;2024-03-22T14:09:31;12.20;99.90
41904;DHT22;27586;51.124;4.182;2024-03-22T14:11:57;12.20;99.90
41904;DHT22;27586;51.124;4.182;2024-03-22T14:14:22;12.20;99.90
41904;DHT22;27586;51.124;4.182;2024-03-22T14:16:49;12.10;99.90
41904;DHT22;27586;51.124;4.182;2024-03-22T14:19:15;12.10;99.90
41904;DHT22;27586;51.124;4.182;2024-03-22T14:21:43;12.10;99.90
41904;DHT22;27586;51.124;4.182;2024-03-22T14:24:09;12.10;99.90
41904;DHT22;27586;51.124;4.182;2024-03-22T14:26:35;12.20;99.90
41904;DHT22;27586;51.124;4.182;2024-03-22T14:29:07;12.20;99.90
41904;DHT22;27586;51.124;4.182;2024-03-22T14:31:33;12.20;99.90
41904;DHT22;27586;51.124;4.182;2024-03-22T14:33:59;12.10;99.90
41904;DHT22;27586;51.124;4.182;2024-03-22T14:36:24;12.00;99.90
41904;DHT22;27586;51.124;4.182;2024-03-22T14:38:50;12.00;99.90
41904;DHT22;27586;51.124;4.182;2024-03-22T14:41:16;12.00;99.90
41904;DHT22;27586;51.124;4.182;2024-03-22T14:43:41;12.00;99.90
41904;DHT22;27586;51.124;4.182;2024-03-22T14:46:07;12.10;99.90
41904;DHT22;27586;51.124;4.182;2024-03-22T14:48:33;12.10;99.90
41904;DHT22;27586;51.124;4.182;2024-03-22T14:50:58;12.00;99.90
41904;DHT22;27586;51.124;4.182;2024-03-22T14:53:24;12.00;99.90
41904;DHT22;27586;51.124;4.182;2024-03-22T14:55:57;12.00;99.90
41904;DHT22;27586;51.124;4.182;2024-03-22T14:58:33;12.00;99.90
41904;DHT22;27586;51.124;4.182;2024-03-22T15:01:05;12.00;99.90
41904;DHT22;27586;51.124;4.182;2024-03-22T15:03:32;12.00;99.90
41904;DHT22;27586;51.124;4.182;2024-03-22T15:05:59;12.00;99.90
41904;DHT22;27586;51.124;4.182;2024-03-22T15:08:26;12.00;99.90
41904;DHT22;27586;51.124;4.182;2024-03-22T15:10:52;12.10;99.90
41904;DHT22;27586;51.124;4.182;2024-03-22T15:13:18;12.10;99.90
41904;DHT22;27586;51.124;4.182;2024-03-22T15:15:57;12.10;99.90
41904;DHT22;27586;51.124;4.182;2024-03-22T15:18:23;12.10;99.90
41904;DHT22;27586;51.124;4.182;2024-03-22T15:20:49;12.00;99.90
41904;DHT22;27586;51.124;4.182;2024-03-22T15:23:15;12.00;99.90